Aviation Digital Data Service (ADDS)

Output produced by METARs form (1659 UTC 23 July 2016)
found at http://aviationweather.gov/adds/metars/
 
KMIV 231141Z 2312/2412 25004KT P6SM SCT060 
     FM231300 29008KT P6SM FEW060 
     FM231600 29010G18KT P6SM SCT050 
     TEMPO 2320/2323 SHRA 
     FM232300 24006KT P6SM SKC 
     FM240500 VRB02KT 5SM BR SKC